Weather reports worldwide

Advertisment
Coventry/Coundon, United Kingdom (99070): temperature & dewpoint: 20.03.2019 19:00:00 - 26.03.2019 19:00:00 (GMT)Coventry/Coundon, United Kingdom (99070): temperature -20cm & temperature -100cm: 20.03.2019 19:00:00 - 26.03.2019 19:00:00 (GMT)Coventry/Coundon, United Kingdom (99070): wind speed: 20.03.2019 19:00:00 - 26.03.2019 19:00:00 (GMT)Coventry/Coundon, United Kingdom (99070): wind direction: 20.03.2019 19:00:00 - 26.03.2019 19:00:00 (GMT)Coventry/Coundon, United Kingdom (99070): precipitation: 20.03.2019 19:00:00 - 26.03.2019 19:00:00 (GMT)
Date & Time tt [°C] td [°C] tt -20cm [°C] tt -100cm [°C] ff [km/h] ff [kn] dd rr [mm]
26.03.2019 19:00:00 8,4 4,0 - - 13 7 NNW 0,0
26.03.2019 18:00:00 10,3 4,7 - - 11 6 N 0,0
26.03.2019 17:00:00 11,7 3,9 - - 9 5 NNW 0,0
26.03.2019 16:00:00 12,6 3,1 - - 9 5 NW 0,0
26.03.2019 15:00:00 14,0 3,8 - - 9 5 NW 0,0
26.03.2019 14:00:00 13,1 3,5 - - 13 7 NNW 0,0
26.03.2019 13:00:00 11,4 2,9 - - 15 8 NW 0,0
26.03.2019 12:00:00 10,8 2,2 - - 15 8 NW 0,0
26.03.2019 11:00:00 10,6 2,3 - - 11 6 NW 0,0
26.03.2019 10:00:00 8,7 3,0 - - 5 3 WNW 0,0
26.03.2019 09:00:00 8,0 3,9 8,7 8,7 9 5 NW 0,0
26.03.2019 08:00:00 6,2 3,3 - - 9 5 NW 0,0
26.03.2019 07:00:00 3,0 1,1 - - 4 2 W 0,0
26.03.2019 06:00:00 3,3 1,3 - - 5 3 WNW 0,0
26.03.2019 05:00:00 3,7 2,0 - - 5 3 W 0,0
26.03.2019 04:00:00 3,0 1,9 - - 9 5 NW 0,0
26.03.2019 03:00:00 1,5 0,3 - - 5 3 W 0,0
26.03.2019 02:00:00 2,2 0,8 - - 5 3 W 0,0
26.03.2019 01:00:00 2,4 0,3 - - 4 2 W 0,0
26.03.2019 00:00:00 2,9 -0,2 - - 4 2 WSW 0,0
25.03.2019 23:00:00 4,0 0,1 - - 5 3 W 0,0
25.03.2019 22:00:00 4,4 -0,1 - - 5 3 NW 0,0
25.03.2019 21:00:00 5,7 -0,3 - - 8 4 NW 0,0
25.03.2019 20:00:00 6,8 0,1 - - 11 6 NW 0,0
25.03.2019 19:00:00 8,1 1,9 - - 11 6 NW 0,0
25.03.2019 18:00:00 10,2 0,0 - - 9 5 NW 0,0
25.03.2019 17:00:00 10,8 -0,2 - - 13 7 N 0,0
25.03.2019 16:00:00 11,8 0,7 - - 11 6 NNW 0,0
25.03.2019 15:00:00 11,9 1,0 - - 13 7 N 0,0
25.03.2019 14:00:00 11,4 1,5 - - 13 7 N 0,0
25.03.2019 13:00:00 10,7 1,9 - - 13 7 N 0,0
25.03.2019 12:00:00 10,4 2,4 - - 16 9 NNW 0,0
25.03.2019 11:00:00 9,2 1,4 - - 18 10 NNW 0,0
25.03.2019 10:00:00 9,0 2,3 - - 18 10 NNW 0,0
25.03.2019 09:00:00 7,4 2,2 9,0 8,7 18 10 NW 0,0
25.03.2019 08:00:00 5,9 2,4 - - 16 9 NW 0,0
25.03.2019 07:00:00 4,6 1,9 - - 16 9 NW 0,0
25.03.2019 06:00:00 4,1 1,4 - - 15 8 NW 0,0
25.03.2019 05:00:00 4,3 1,0 - - 13 7 NW 0,0
25.03.2019 04:00:00 4,8 1,1 - - 15 8 NW 0,0
25.03.2019 03:00:00 5,3 1,8 - - 11 6 NW 0,0
25.03.2019 02:00:00 6,0 2,2 - - 13 7 NW 0,0
25.03.2019 01:00:00 6,9 3,6 - - 15 8 WNW 0,0
25.03.2019 00:00:00 7,5 3,8 - - 13 7 WNW 0,0
24.03.2019 23:00:00 8,0 3,3 - - 13 7 WNW 0,0
24.03.2019 22:00:00 7,7 2,9 - - 13 7 W 0,0
24.03.2019 21:00:00 7,5 2,3 - - 15 8 W 0,0
24.03.2019 20:00:00 7,9 1,8 - - 13 7 W 0,0
24.03.2019 19:00:00 8,6 1,5 - - 13 7 W 0,0
24.03.2019 18:00:00 9,5 1,1 - - 15 8 WNW 0,0
24.03.2019 17:00:00 11,4 0,5 - - 13 7 W 0,0
24.03.2019 16:00:00 11,3 -0,4 - - 16 9 WNW 0,0
24.03.2019 15:00:00 11,8 -0,4 - - 16 9 W 0,0
24.03.2019 14:00:00 11,2 -0,4 - - 16 9 WNW 0,0
24.03.2019 13:00:00 11,0 0,1 - - 15 8 WNW 0,0
24.03.2019 12:00:00 10,4 -0,4 - - 11 6 WNW 0,0
24.03.2019 11:00:00 9,8 0,2 - - 15 8 WNW 0,0
24.03.2019 10:00:00 8,9 0,1 - - 13 7 NW 0,0
24.03.2019 09:00:00 7,6 1,1 9,0 8,7 9 5 NW 0,0
24.03.2019 08:00:00 5,9 2,1 - - 4 2 W 0,0
24.03.2019 07:00:00 3,2 0,9 - - 4 2 WNW 0,0
24.03.2019 06:00:00 3,0 0,6 - - 4 2 W 0,0
24.03.2019 05:00:00 4,6 0,9 - - 2 1 NW 0,0
24.03.2019 04:00:00 4,8 1,3 - - 8 4 NNW 0,0
24.03.2019 03:00:00 5,5 1,3 - - 2 1 SW 0,0
24.03.2019 02:00:00 5,8 1,1 - - 4 2 W 0,0
24.03.2019 01:00:00 5,9 0,8 - - 0 0 N 0,0
24.03.2019 00:00:00 6,2 1,2 - - 8 4 N 0,0
23.03.2019 23:00:00 6,5 1,0 - - 9 5 N 0,0
23.03.2019 22:00:00 7,0 1,1 - - 8 4 NNW 0,0
23.03.2019 21:00:00 6,9 1,5 - - 2 1 S 0,0
23.03.2019 20:00:00 7,4 0,2 - - 4 2 NW 0,0
23.03.2019 19:00:00 7,6 0,2 - - 4 2 NW 0,0
23.03.2019 18:00:00 8,5 1,0 - - 8 4 NNW 0,0
23.03.2019 17:00:00 9,6 -0,6 - - 9 5 NNW 0,0
23.03.2019 16:00:00 10,0 -0,4 - - 9 5 N 0,0
23.03.2019 15:00:00 9,9 1,8 - - 8 4 NNE 0,0
23.03.2019 14:00:00 9,5 2,5 - - 11 6 N 0,0
23.03.2019 13:00:00 9,1 1,1 - - 9 5 NNW 0,0
23.03.2019 12:00:00 8,9 0,4 - - 11 6 N 0,0
23.03.2019 11:00:00 8,3 2,3 - - 11 6 NNW 0,0
23.03.2019 10:00:00 8,7 2,9 - - 13 7 N 0,0
23.03.2019 09:00:00 8,1 1,0 9,2 8,4 13 7 N 0,0
23.03.2019 08:00:00 7,2 2,3 - - 11 6 N 0,0
23.03.2019 07:00:00 6,8 3,4 - - 8 4 NNW 0,0
23.03.2019 06:00:00 7,0 4,5 - - 5 3 NNW 0,0
23.03.2019 05:00:00 7,3 4,9 - - 8 4 NNW 0,0
23.03.2019 04:00:00 7,9 4,8 - - 9 5 NNW 0,0
23.03.2019 03:00:00 8,7 4,9 - - 9 5 NNW 0,0
23.03.2019 02:00:00 9,2 4,9 - - 11 6 NNW 0,0
23.03.2019 01:00:00 9,5 5,4 - - 9 5 NW 0,0
23.03.2019 00:00:00 9,8 6,4 - - 5 3 WSW 0,0
22.03.2019 23:00:00 9,9 5,9 - - 5 3 SW 0,0
22.03.2019 22:00:00 10,0 5,6 - - 8 4 SW 0,0
22.03.2019 21:00:00 10,2 5,5 - - 8 4 SW 0,0
22.03.2019 20:00:00 10,4 5,8 - - 5 3 SW 0,0
22.03.2019 19:00:00 10,8 5,7 - - 11 6 WSW 0,0
22.03.2019 18:00:00 11,3 6,3 - - 11 6 W 0,0
22.03.2019 17:00:00 11,6 6,5 - - 15 8 WSW 0,0
22.03.2019 16:00:00 11,9 6,8 - - 13 7 SW 0,0
22.03.2019 15:00:00 12,2 6,6 - - 13 7 SW 0,0
22.03.2019 14:00:00 12,6 5,8 - - 18 10 SW 0,0
22.03.2019 13:00:00 12,0 5,4 - - 15 8 SW 0,0
22.03.2019 12:00:00 11,0 5,5 - - 13 7 SW 0,0
22.03.2019 11:00:00 10,0 5,7 - - 13 7 WSW 0,0
22.03.2019 10:00:00 9,5 6,2 - - 13 7 SW 0,0
22.03.2019 09:00:00 9,0 5,9 9,0 8,2 18 10 SSW 0,0
22.03.2019 08:00:00 9,3 6,3 - - 15 8 SSW 0,0
22.03.2019 07:00:00 9,4 6,6 - - 11 6 S 0,0
22.03.2019 06:00:00 9,7 7,3 - - 11 6 SSW 0,0
22.03.2019 05:00:00 10,0 7,7 - - 9 5 S 0,0
22.03.2019 04:00:00 10,2 7,5 - - 8 4 SSW 0,0
22.03.2019 03:00:00 10,4 7,6 - - 11 6 SSW 0,0
22.03.2019 02:00:00 10,5 7,8 - - 8 4 SSW 0,0
22.03.2019 01:00:00 10,5 7,7 - - 8 4 S 0,0
22.03.2019 00:00:00 10,5 7,7 - - 5 3 SSW 0,0
21.03.2019 23:00:00 10,4 7,8 - - 8 4 S 0,0
21.03.2019 22:00:00 10,3 7,7 - - 5 3 SSW 0,0
21.03.2019 21:00:00 10,4 7,6 - - 9 5 S 0,0
21.03.2019 20:00:00 11,0 8,2 - - 5 3 S 0,0
21.03.2019 19:00:00 11,1 8,1 - - 4 2 SW 0,0
21.03.2019 18:00:00 11,6 8,2 - - 5 3 SW 0,0
21.03.2019 17:00:00 11,8 8,4 - - 8 4 W 0,0
21.03.2019 16:00:00 12,0 8,4 - - 9 5 W 0,0
21.03.2019 15:00:00 12,6 8,9 - - 8 4 WSW 0,0
21.03.2019 14:00:00 12,5 8,7 - - 8 4 SSW 0,0
21.03.2019 13:00:00 12,7 8,7 - - 9 5 SW 0,0
21.03.2019 12:00:00 12,9 8,6 - - 8 4 W 0,0
21.03.2019 11:00:00 12,7 8,8 - - 9 5 WSW 0,0
21.03.2019 10:00:00 11,8 9,2 - - 8 4 WSW 0,0
21.03.2019 09:00:00 9,2 8,1 8,7 8,0 9 5 WSW 0,0
21.03.2019 08:00:00 8,2 7,7 - - 11 6 WSW 0,0
21.03.2019 07:00:00 7,4 7,2 - - 8 4 W 0,0
21.03.2019 06:00:00 7,1 6,7 - - 9 5 W 0,0
21.03.2019 05:00:00 7,2 6,6 - - 8 4 WSW 0,0
21.03.2019 04:00:00 7,5 6,9 - - 9 5 WSW 0,0
21.03.2019 03:00:00 7,5 6,9 - - 5 3 SW 0,0
21.03.2019 02:00:00 7,8 7,1 - - 5 3 SW 0,0
21.03.2019 01:00:00 8,1 7,3 - - 9 5 WSW 0,0
21.03.2019 00:00:00 8,1 7,7 - - 11 6 WSW 0,0
20.03.2019 23:00:00 8,0 7,3 - - 11 6 WSW 0,0
20.03.2019 22:00:00 8,5 7,5 - - 9 5 WSW 0,0
20.03.2019 21:00:00 9,0 7,6 - - 8 4 SW 0,0
20.03.2019 20:00:00 9,8 7,8 - - 9 5 SSW 0,0
20.03.2019 19:00:00 11,1 8,1 - - 9 5 SW 0,0

tt = temperature
td = dewpoint
tt -20cm = temperature -20cm
tt -100cm = temperature -100cm
ff = wind speed
dd = wind direction
rr = precipitation

Next stations